sensor_id;sensor_type;location;lat;lon;timestamp;pressure;altitude;pressure_sealevel;temperature;humidity
32638;BME280;19045;52.268;10.506;2023-06-04T00:01:58;101213.69;;;13.36;47.15
32638;BME280;19045;52.268;10.506;2023-06-04T00:04:25;101216.88;;;13.28;47.30
32638;BME280;19045;52.268;10.506;2023-06-04T00:06:53;101205.50;;;13.26;47.76
32638;BME280;19045;52.268;10.506;2023-06-04T00:09:20;101209.31;;;13.25;48.39
32638;BME280;19045;52.268;10.506;2023-06-04T00:11:46;101207.00;;;13.12;48.60
32638;BME280;19045;52.268;10.506;2023-06-04T00:14:13;101200.69;;;13.06;48.33
32638;BME280;19045;52.268;10.506;2023-06-04T00:16:40;101205.31;;;13.06;48.19
32638;BME280;19045;52.268;10.506;2023-06-04T00:19:08;101212.50;;;13.00;48.32
32638;BME280;19045;52.268;10.506;2023-06-04T00:21:35;101207.31;;;12.93;48.57
32638;BME280;19045;52.268;10.506;2023-06-04T00:24:02;101212.66;;;12.88;49.28
32638;BME280;19045;52.268;10.506;2023-06-04T00:26:29;101210.47;;;12.85;49.62
32638;BME280;19045;52.268;10.506;2023-06-04T00:28:55;101213.91;;;12.81;49.66
32638;BME280;19045;52.268;10.506;2023-06-04T00:31:22;101215.38;;;12.67;49.99
32638;BME280;19045;52.268;10.506;2023-06-04T00:33:49;101214.84;;;12.70;49.24
32638;BME280;19045;52.268;10.506;2023-06-04T00:36:18;101214.22;;;12.63;50.00
32638;BME280;19045;52.268;10.506;2023-06-04T00:38:44;101221.34;;;12.69;50.08
32638;BME280;19045;52.268;10.506;2023-06-04T00:41:11;101219.38;;;12.64;49.99
32638;BME280;19045;52.268;10.506;2023-06-04T00:43:37;101207.78;;;12.64;50.07
32638;BME280;19045;52.268;10.506;2023-06-04T00:46:05;101207.47;;;12.60;50.22
32638;BME280;19045;52.268;10.506;2023-06-04T00:48:32;101210.66;;;12.57;50.37
32638;BME280;19045;52.268;10.506;2023-06-04T00:51:02;101214.69;;;12.55;50.26
32638;BME280;19045;52.268;10.506;2023-06-04T00:53:30;101217.63;;;12.53;50.09
32638;BME280;19045;52.268;10.506;2023-06-04T00:55:56;101215.19;;;12.52;51.19
32638;BME280;19045;52.268;10.506;2023-06-04T00:58:24;101214.38;;;12.51;50.20
32638;BME280;19045;52.268;10.506;2023-06-04T01:00:52;101215.75;;;12.54;50.40
32638;BME280;19045;52.268;10.506;2023-06-04T01:03:23;101221.44;;;12.57;50.58
32638;BME280;19045;52.268;10.506;2023-06-04T01:05:57;101215.00;;;12.58;49.92
32638;BME280;19045;52.268;10.506;2023-06-04T01:08:26;101216.06;;;12.57;50.73
32638;BME280;19045;52.268;10.506;2023-06-04T01:10:55;101209.78;;;12.52;50.45
32638;BME280;19045;52.268;10.506;2023-06-04T01:13:24;101213.31;;;12.52;50.56
32638;BME280;19045;52.268;10.506;2023-06-04T01:15:51;101215.69;;;12.49;50.20
32638;BME280;19045;52.268;10.506;2023-06-04T01:18:24;101212.19;;;12.48;50.60
32638;BME280;19045;52.268;10.506;2023-06-04T01:20:57;101209.03;;;12.34;50.62
32638;BME280;19045;52.268;10.506;2023-06-04T01:23:35;101204.66;;;12.28;50.32
32638;BME280;19045;52.268;10.506;2023-06-04T01:26:05;101209.44;;;12.26;50.55
32638;BME280;19045;52.268;10.506;2023-06-04T01:28:33;101206.28;;;12.29;50.13
32638;BME280;19045;52.268;10.506;2023-06-04T01:31:01;101203.78;;;12.23;49.88
32638;BME280;19045;52.268;10.506;2023-06-04T01:33:28;101198.84;;;12.20;50.01
32638;BME280;19045;52.268;10.506;2023-06-04T01:35:54;101198.25;;;12.13;50.87
32638;BME280;19045;52.268;10.506;2023-06-04T01:38:21;101197.59;;;12.06;50.89
32638;BME280;19045;52.268;10.506;2023-06-04T01:40:48;101190.75;;;11.98;50.87
32638;BME280;19045;52.268;10.506;2023-06-04T01:43:17;101194.00;;;12.00;51.65
32638;BME280;19045;52.268;10.506;2023-06-04T01:45:44;101195.97;;;12.05;50.92
32638;BME280;19045;52.268;10.506;2023-06-04T01:48:11;101193.09;;;12.11;51.31
32638;BME280;19045;52.268;10.506;2023-06-04T01:50:38;101202.31;;;12.15;50.76
32638;BME280;19045;52.268;10.506;2023-06-04T01:53:05;101204.84;;;12.05;51.23
32638;BME280;19045;52.268;10.506;2023-06-04T01:55:31;101196.94;;;11.99;51.75
32638;BME280;19045;52.268;10.506;2023-06-04T01:57:59;101197.78;;;11.99;51.74
32638;BME280;19045;52.268;10.506;2023-06-04T02:00:28;101195.56;;;11.96;52.00
32638;BME280;19045;52.268;10.506;2023-06-04T02:02:55;101190.69;;;11.93;52.06
32638;BME280;19045;52.268;10.506;2023-06-04T02:05:23;101187.06;;;12.04;51.24
32638;BME280;19045;52.268;10.506;2023-06-04T02:07:50;101185.19;;;12.05;51.29
32638;BME280;19045;52.268;10.506;2023-06-04T02:10:18;101195.41;;;12.03;51.65
32638;BME280;19045;52.268;10.506;2023-06-04T02:12:56;101188.28;;;11.97;51.87
32638;BME280;19045;52.268;10.506;2023-06-04T02:15:23;101192.47;;;11.87;52.80
32638;BME280;19045;52.268;10.506;2023-06-04T02:17:56;101190.22;;;11.79;52.48
32638;BME280;19045;52.268;10.506;2023-06-04T02:20:24;101194.69;;;11.74;52.93
32638;BME280;19045;52.268;10.506;2023-06-04T02:22:51;101190.84;;;11.70;53.76
32638;BME280;19045;52.268;10.506;2023-06-04T02:25:17;101191.06;;;11.68;54.16
32638;BME280;19045;52.268;10.506;2023-06-04T02:27:44;101194.81;;;11.67;54.28
32638;BME280;19045;52.268;10.506;2023-06-04T02:30:11;101191.06;;;11.68;54.01
32638;BME280;19045;52.268;10.506;2023-06-04T02:32:37;101187.91;;;11.71;54.28
32638;BME280;19045;52.268;10.506;2023-06-04T02:35:06;101191.25;;;11.62;54.73
32638;BME280;19045;52.268;10.506;2023-06-04T02:37:33;101188.06;;;11.65;54.24
32638;BME280;19045;52.268;10.506;2023-06-04T02:39:59;101180.38;;;11.57;54.41
32638;BME280;19045;52.268;10.506;2023-06-04T02:42:26;101179.97;;;11.48;54.79
32638;BME280;19045;52.268;10.506;2023-06-04T02:44:52;101184.47;;;11.43;54.68
32638;BME280;19045;52.268;10.506;2023-06-04T02:47:19;101191.94;;;11.40;54.93
32638;BME280;19045;52.268;10.506;2023-06-04T02:49:46;101202.06;;;11.33;55.19
32638;BME280;19045;52.268;10.506;2023-06-04T02:52:14;101199.13;;;11.35;55.72
32638;BME280;19045;52.268;10.506;2023-06-04T02:54:40;101196.28;;;11.41;55.34
32638;BME280;19045;52.268;10.506;2023-06-04T02:57:07;101199.06;;;11.47;54.93
32638;BME280;19045;52.268;10.506;2023-06-04T02:59:34;101189.94;;;11.48;55.04
32638;BME280;19045;52.268;10.506;2023-06-04T03:02:01;101190.75;;;11.48;54.95
32638;BME280;19045;52.268;10.506;2023-06-04T03:04:28;101188.16;;;11.53;55.06
32638;BME280;19045;52.268;10.506;2023-06-04T03:06:59;101188.88;;;11.49;55.67
32638;BME280;19045;52.268;10.506;2023-06-04T03:09:28;101193.44;;;11.48;55.87
32638;BME280;19045;52.268;10.506;2023-06-04T03:11:54;101190.19;;;11.46;56.34
32638;BME280;19045;52.268;10.506;2023-06-04T03:14:21;101192.94;;;11.34;56.00
32638;BME280;19045;52.268;10.506;2023-06-04T03:16:48;101196.03;;;11.26;56.33
32638;BME280;19045;52.268;10.506;2023-06-04T03:19:16;101199.94;;;11.35;56.07
32638;BME280;19045;52.268;10.506;2023-06-04T03:21:43;101201.16;;;11.28;56.70
32638;BME280;19045;52.268;10.506;2023-06-04T03:24:10;101203.69;;;11.34;56.49
32638;BME280;19045;52.268;10.506;2023-06-04T03:26:38;101188.72;;;11.38;56.39
32638;BME280;19045;52.268;10.506;2023-06-04T03:29:04;101194.97;;;11.44;56.32
32638;BME280;19045;52.268;10.506;2023-06-04T03:31:31;101199.31;;;11.45;56.77
32638;BME280;19045;52.268;10.506;2023-06-04T03:33:58;101192.06;;;11.46;56.97
32638;BME280;19045;52.268;10.506;2023-06-04T03:36:25;101194.75;;;11.46;57.01
32638;BME280;19045;52.268;10.506;2023-06-04T03:38:57;101201.50;;;11.48;57.47
32638;BME280;19045;52.268;10.506;2023-06-04T03:41:23;101201.59;;;11.53;57.32
32638;BME280;19045;52.268;10.506;2023-06-04T03:43:52;101196.69;;;11.50;58.41
32638;BME280;19045;52.268;10.506;2023-06-04T03:46:19;101204.53;;;11.52;57.91
32638;BME280;19045;52.268;10.506;2023-06-04T03:48:46;101212.81;;;11.50;57.84
32638;BME280;19045;52.268;10.506;2023-06-04T03:51:12;101201.75;;;11.47;58.06
32638;BME280;19045;52.268;10.506;2023-06-04T03:53:39;101203.53;;;11.41;58.40
32638;BME280;19045;52.268;10.506;2023-06-04T03:56:05;101204.84;;;11.38;57.91
32638;BME280;19045;52.268;10.506;2023-06-04T03:58:32;101206.50;;;11.39;58.12
32638;BME280;19045;52.268;10.506;2023-06-04T04:01:02;101210.28;;;11.43;58.04
32638;BME280;19045;52.268;10.506;2023-06-04T04:03:30;101205.50;;;11.46;57.69
32638;BME280;19045;52.268;10.506;2023-06-04T04:05:57;101207.72;;;11.49;57.73
32638;BME280;19045;52.268;10.506;2023-06-04T04:08:23;101210.06;;;11.45;58.54
32638;BME280;19045;52.268;10.506;2023-06-04T04:10:51;101210.72;;;11.52;58.47
32638;BME280;19045;52.268;10.506;2023-06-04T04:13:17;101215.94;;;11.59;58.58
32638;BME280;19045;52.268;10.506;2023-06-04T04:15:44;101214.16;;;11.64;58.31
32638;BME280;19045;52.268;10.506;2023-06-04T04:18:12;101222.81;;;11.66;58.75
32638;BME280;19045;52.268;10.506;2023-06-04T04:20:42;101215.78;;;11.65;58.53
32638;BME280;19045;52.268;10.506;2023-06-04T04:23:08;101211.78;;;11.68;57.32
32638;BME280;19045;52.268;10.506;2023-06-04T04:25:36;101214.94;;;11.76;56.71
32638;BME280;19045;52.268;10.506;2023-06-04T04:28:03;101218.06;;;11.90;56.46
32638;BME280;19045;52.268;10.506;2023-06-04T04:30:32;101220.69;;;12.02;55.16
32638;BME280;19045;52.268;10.506;2023-06-04T04:33:00;101216.78;;;12.09;55.46
32638;BME280;19045;52.268;10.506;2023-06-04T04:35:28;101217.31;;;12.11;55.96
32638;BME280;19045;52.268;10.506;2023-06-04T04:37:57;101216.16;;;12.24;55.00
32638;BME280;19045;52.268;10.506;2023-06-04T04:40:24;101218.25;;;12.38;53.79
32638;BME280;19045;52.268;10.506;2023-06-04T04:42:51;101214.88;;;12.48;54.41
32638;BME280;19045;52.268;10.506;2023-06-04T04:45:17;101218.25;;;12.60;53.44
32638;BME280;19045;52.268;10.506;2023-06-04T04:47:44;101217.94;;;12.78;52.26
32638;BME280;19045;52.268;10.506;2023-06-04T04:50:12;101218.91;;;12.94;51.10
32638;BME280;19045;52.268;10.506;2023-06-04T04:52:40;101220.09;;;13.03;51.07
32638;BME280;19045;52.268;10.506;2023-06-04T04:55:07;101215.41;;;13.15;50.98
32638;BME280;19045;52.268;10.506;2023-06-04T04:57:34;101219.63;;;13.33;50.64
32638;BME280;19045;52.268;10.506;2023-06-04T05:00:00;101213.25;;;13.44;50.40
32638;BME280;19045;52.268;10.506;2023-06-04T05:02:29;101228.50;;;13.60;50.26
32638;BME280;19045;52.268;10.506;2023-06-04T05:04:55;101217.25;;;13.68;49.98
32638;BME280;19045;52.268;10.506;2023-06-04T05:07:22;101228.66;;;13.80;49.48
32638;BME280;19045;52.268;10.506;2023-06-04T05:09:51;101210.09;;;13.89;49.08
32638;BME280;19045;52.268;10.506;2023-06-04T05:12:18;101216.34;;;13.94;49.17
32638;BME280;19045;52.268;10.506;2023-06-04T05:14:45;101225.28;;;13.95;49.21
32638;BME280;19045;52.268;10.506;2023-06-04T05:17:12;101220.97;;;13.99;49.73
32638;BME280;19045;52.268;10.506;2023-06-04T05:19:41;101229.19;;;14.19;49.82
32638;BME280;19045;52.268;10.506;2023-06-04T05:22:08;101228.00;;;14.37;48.97
32638;BME280;19045;52.268;10.506;2023-06-04T05:24:34;101232.66;;;14.52;47.89
32638;BME280;19045;52.268;10.506;2023-06-04T05:27:03;101238.69;;;14.69;47.55
32638;BME280;19045;52.268;10.506;2023-06-04T05:29:29;101224.13;;;14.85;48.08
32638;BME280;19045;52.268;10.506;2023-06-04T05:31:56;101226.34;;;15.03;48.12
32638;BME280;19045;52.268;10.506;2023-06-04T05:34:23;101230.75;;;15.29;46.79
32638;BME280;19045;52.268;10.506;2023-06-04T05:36:49;101232.69;;;15.49;45.97
32638;BME280;19045;52.268;10.506;2023-06-04T05:39:16;101227.28;;;15.59;45.75
32638;BME280;19045;52.268;10.506;2023-06-04T05:41:43;101231.91;;;15.74;46.37
32638;BME280;19045;52.268;10.506;2023-06-04T05:44:12;101233.50;;;15.85;46.18
32638;BME280;19045;52.268;10.506;2023-06-04T05:46:38;101233.22;;;16.01;45.28
32638;BME280;19045;52.268;10.506;2023-06-04T05:49:05;101233.19;;;16.12;45.48
32638;BME280;19045;52.268;10.506;2023-06-04T05:51:32;101239.97;;;16.14;44.46
32638;BME280;19045;52.268;10.506;2023-06-04T05:53:58;101236.41;;;16.29;44.36
32638;BME280;19045;52.268;10.506;2023-06-04T05:56:25;101235.56;;;16.38;44.44
32638;BME280;19045;52.268;10.506;2023-06-04T05:58:52;101242.88;;;16.53;44.12
32638;BME280;19045;52.268;10.506;2023-06-04T06:01:20;101238.78;;;16.66;43.75
32638;BME280;19045;52.268;10.506;2023-06-04T06:03:47;101250.63;;;16.85;43.49
32638;BME280;19045;52.268;10.506;2023-06-04T06:06:13;101249.19;;;17.02;43.31
32638;BME280;19045;52.268;10.506;2023-06-04T06:08:40;101248.00;;;17.19;43.06
32638;BME280;19045;52.268;10.506;2023-06-04T06:11:07;101238.72;;;17.30;42.99
32638;BME280;19045;52.268;10.506;2023-06-04T06:13:34;101246.25;;;17.43;42.93
32638;BME280;19045;52.268;10.506;2023-06-04T06:16:01;101247.25;;;17.52;41.66
32638;BME280;19045;52.268;10.506;2023-06-04T06:18:29;101245.56;;;17.61;41.19
32638;BME280;19045;52.268;10.506;2023-06-04T06:20:55;101244.44;;;17.67;41.16
32638;BME280;19045;52.268;10.506;2023-06-04T06:23:22;101249.03;;;17.72;41.29
32638;BME280;19045;52.268;10.506;2023-06-04T06:25:49;101248.94;;;17.82;42.05
32638;BME280;19045;52.268;10.506;2023-06-04T06:28:17;101246.38;;;17.95;41.98
32638;BME280;19045;52.268;10.506;2023-06-04T06:30:43;101252.00;;;18.04;42.37
32638;BME280;19045;52.268;10.506;2023-06-04T06:33:10;101252.44;;;18.16;41.98
32638;BME280;19045;52.268;10.506;2023-06-04T06:35:38;101249.25;;;18.33;42.24
32638;BME280;19045;52.268;10.506;2023-06-04T06:38:05;101252.09;;;18.23;41.13
32638;BME280;19045;52.268;10.506;2023-06-04T06:40:31;101252.97;;;18.18;41.38
32638;BME280;19045;52.268;10.506;2023-06-04T06:42:58;101254.41;;;18.34;41.05
32638;BME280;19045;52.268;10.506;2023-06-04T06:45:25;101262.75;;;18.43;41.15
32638;BME280;19045;52.268;10.506;2023-06-04T06:47:51;101259.06;;;18.63;40.65
32638;BME280;19045;52.268;10.506;2023-06-04T06:50:18;101258.50;;;18.84;40.41
32638;BME280;19045;52.268;10.506;2023-06-04T06:52:46;101259.19;;;18.95;40.39
32638;BME280;19045;52.268;10.506;2023-06-04T06:55:12;101267.44;;;19.08;40.73
32638;BME280;19045;52.268;10.506;2023-06-04T06:57:39;101261.41;;;19.30;39.41
32638;BME280;19045;52.268;10.506;2023-06-04T07:00:07;101261.41;;;19.49;38.55
32638;BME280;19045;52.268;10.506;2023-06-04T07:02:34;101264.00;;;19.59;38.13
32638;BME280;19045;52.268;10.506;2023-06-04T07:05:00;101263.34;;;19.67;37.30
32638;BME280;19045;52.268;10.506;2023-06-04T07:07:27;101267.31;;;19.75;37.12
32638;BME280;19045;52.268;10.506;2023-06-04T07:09:55;101268.63;;;19.77;37.76
32638;BME280;19045;52.268;10.506;2023-06-04T07:12:21;101269.72;;;19.76;38.18
32638;BME280;19045;52.268;10.506;2023-06-04T07:14:48;101270.47;;;19.82;38.11
32638;BME280;19045;52.268;10.506;2023-06-04T07:17:15;101263.22;;;19.91;38.33
32638;BME280;19045;52.268;10.506;2023-06-04T07:19:41;101265.59;;;20.11;37.39
32638;BME280;19045;52.268;10.506;2023-06-04T07:22:08;101258.63;;;20.19;37.49
32638;BME280;19045;52.268;10.506;2023-06-04T07:24:35;101264.69;;;20.16;37.12
32638;BME280;19045;52.268;10.506;2023-06-04T07:27:10;101263.63;;;20.30;35.82
32638;BME280;19045;52.268;10.506;2023-06-04T07:29:37;101263.84;;;20.34;35.09
32638;BME280;19045;52.268;10.506;2023-06-04T07:32:06;101262.22;;;20.46;35.83
32638;BME280;19045;52.268;10.506;2023-06-04T07:34:32;101258.09;;;20.62;36.34
32638;BME280;19045;52.268;10.506;2023-06-04T07:36:59;101261.63;;;20.77;36.11
32638;BME280;19045;52.268;10.506;2023-06-04T07:39:28;101260.38;;;20.96;35.38
32638;BME280;19045;52.268;10.506;2023-06-04T07:41:54;101263.13;;;21.10;34.76
32638;BME280;19045;52.268;10.506;2023-06-04T07:44:27;101257.94;;;20.95;35.23
32638;BME280;19045;52.268;10.506;2023-06-04T07:46:54;101258.56;;;20.92;35.81
32638;BME280;19045;52.268;10.506;2023-06-04T07:49:21;101260.97;;;21.07;35.59
32638;BME280;19045;52.268;10.506;2023-06-04T07:51:47;101267.75;;;21.23;34.93
32638;BME280;19045;52.268;10.506;2023-06-04T07:54:17;101266.53;;;21.29;35.35
32638;BME280;19045;52.268;10.506;2023-06-04T07:56:44;101262.94;;;21.42;34.79
32638;BME280;19045;52.268;10.506;2023-06-04T07:59:14;101259.84;;;21.57;33.79
32638;BME280;19045;52.268;10.506;2023-06-04T08:01:42;101261.59;;;21.76;34.24
32638;BME280;19045;52.268;10.506;2023-06-04T08:04:08;101258.91;;;21.84;33.56
32638;BME280;19045;52.268;10.506;2023-06-04T08:06:35;101266.19;;;21.89;33.76
32638;BME280;19045;52.268;10.506;2023-06-04T08:09:05;101262.09;;;22.00;33.24
32638;BME280;19045;52.268;10.506;2023-06-04T08:11:32;101263.88;;;22.04;32.53
32638;BME280;19045;52.268;10.506;2023-06-04T08:13:58;101268.13;;;22.10;33.17
32638;BME280;19045;52.268;10.506;2023-06-04T08:16:25;101269.16;;;22.23;32.91
32638;BME280;19045;52.268;10.506;2023-06-04T08:18:53;101274.31;;;22.25;32.41
32638;BME280;19045;52.268;10.506;2023-06-04T08:21:28;101273.53;;;22.02;31.92
32638;BME280;19045;52.268;10.506;2023-06-04T08:23:54;101271.88;;;21.92;32.52
32638;BME280;19045;52.268;10.506;2023-06-04T08:26:22;101268.97;;;21.53;33.03
32638;BME280;19045;52.268;10.506;2023-06-04T08:28:49;101268.34;;;21.34;32.95
32638;BME280;19045;52.268;10.506;2023-06-04T08:31:16;101270.53;;;21.67;32.79
32638;BME280;19045;52.268;10.506;2023-06-04T08:33:45;101270.16;;;22.05;32.39
32638;BME280;19045;52.268;10.506;2023-06-04T08:36:13;101278.03;;;22.29;29.95
32638;BME280;19045;52.268;10.506;2023-06-04T08:38:40;101277.47;;;22.40;28.45
32638;BME280;19045;52.268;10.506;2023-06-04T08:41:11;101284.78;;;22.53;29.12
32638;BME280;19045;52.268;10.506;2023-06-04T08:43:39;101279.59;;;22.21;29.83
32638;BME280;19045;52.268;10.506;2023-06-04T08:46:08;101277.09;;;22.33;29.55
32638;BME280;19045;52.268;10.506;2023-06-04T08:48:37;101280.91;;;22.24;30.20
32638;BME280;19045;52.268;10.506;2023-06-04T08:51:05;101282.69;;;22.59;29.46
32638;BME280;19045;52.268;10.506;2023-06-04T08:53:35;101284.34;;;22.69;29.65
32638;BME280;19045;52.268;10.506;2023-06-04T08:56:03;101279.06;;;22.81;28.31
32638;BME280;19045;52.268;10.506;2023-06-04T08:58:31;101275.22;;;22.82;28.10
32638;BME280;19045;52.268;10.506;2023-06-04T09:00:59;101277.16;;;22.81;28.05
32638;BME280;19045;52.268;10.506;2023-06-04T09:03:26;101279.44;;;22.96;28.48
32638;BME280;19045;52.268;10.506;2023-06-04T09:05:55;101276.63;;;22.71;28.31
32638;BME280;19045;52.268;10.506;2023-06-04T09:08:24;101272.34;;;22.87;28.89
32638;BME280;19045;52.268;10.506;2023-06-04T09:10:54;101270.88;;;22.89;28.47
32638;BME280;19045;52.268;10.506;2023-06-04T09:13:22;101273.19;;;23.22;29.16
32638;BME280;19045;52.268;10.506;2023-06-04T09:16:00;101276.16;;;23.51;29.22
32638;BME280;19045;52.268;10.506;2023-06-04T09:18:27;101280.03;;;23.58;28.04
32638;BME280;19045;52.268;10.506;2023-06-04T09:21:04;101282.25;;;23.39;28.18
32638;BME280;19045;52.268;10.506;2023-06-04T09:23:31;101280.31;;;23.40;28.87
32638;BME280;19045;52.268;10.506;2023-06-04T09:26:08;101277.13;;;23.46;27.95
32638;BME280;19045;52.268;10.506;2023-06-04T09:31:01;101269.06;;;23.58;28.64
32638;BME280;19045;52.268;10.506;2023-06-04T09:33:28;101263.72;;;23.79;28.03
32638;BME280;19045;52.268;10.506;2023-06-04T09:35:56;101260.31;;;23.74;28.05
32638;BME280;19045;52.268;10.506;2023-06-04T09:38:22;101274.66;;;23.88;28.23
32638;BME280;19045;52.268;10.506;2023-06-04T09:40:49;101265.81;;;23.82;28.18
32638;BME280;19045;52.268;10.506;2023-06-04T09:43:22;101258.22;;;23.79;27.60
32638;BME280;19045;52.268;10.506;2023-06-04T09:45:49;101263.34;;;23.98;28.26
32638;BME280;19045;52.268;10.506;2023-06-04T09:48:19;101259.94;;;24.09;27.63
32638;BME280;19045;52.268;10.506;2023-06-04T09:50:46;101263.00;;;24.08;27.16
32638;BME280;19045;52.268;10.506;2023-06-04T09:53:13;101261.72;;;24.23;27.29
32638;BME280;19045;52.268;10.506;2023-06-04T09:55:41;101262.72;;;24.56;27.37
32638;BME280;19045;52.268;10.506;2023-06-04T09:58:10;101261.91;;;24.55;26.92
32638;BME280;19045;52.268;10.506;2023-06-04T10:00:40;101257.22;;;24.47;27.51
32638;BME280;19045;52.268;10.506;2023-06-04T10:03:10;101257.22;;;24.47;27.01
32638;BME280;19045;52.268;10.506;2023-06-04T10:05:40;101262.72;;;24.47;26.64
32638;BME280;19045;52.268;10.506;2023-06-04T10:08:26;101263.53;;;24.48;26.50
32638;BME280;19045;52.268;10.506;2023-06-04T10:11:07;101265.16;;;24.49;26.58
32638;BME280;19045;52.268;10.506;2023-06-04T10:13:42;101260.38;;;24.29;25.81
32638;BME280;19045;52.268;10.506;2023-06-04T10:16:13;101261.56;;;23.93;25.31
32638;BME280;19045;52.268;10.506;2023-06-04T10:18:40;101260.81;;;23.67;26.35
32638;BME280;19045;52.268;10.506;2023-06-04T10:21:08;101268.41;;;23.53;26.45
32638;BME280;19045;52.268;10.506;2023-06-04T10:23:47;101258.50;;;23.95;25.78
32638;BME280;19045;52.268;10.506;2023-06-04T10:26:34;101254.75;;;24.16;25.74
32638;BME280;19045;52.268;10.506;2023-06-04T10:29:17;101262.97;;;22.88;26.94
32638;BME280;19045;52.268;10.506;2023-06-04T10:31:45;101256.63;;;23.52;27.35
32638;BME280;19045;52.268;10.506;2023-06-04T10:34:13;101253.81;;;24.12;26.62
32638;BME280;19045;52.268;10.506;2023-06-04T10:36:42;101249.09;;;24.59;26.41
32638;BME280;19045;52.268;10.506;2023-06-04T10:39:10;101248.50;;;24.83;25.79
32638;BME280;19045;52.268;10.506;2023-06-04T10:41:37;101255.97;;;24.74;25.46
32638;BME280;19045;52.268;10.506;2023-06-04T10:44:04;101249.34;;;24.75;25.99
32638;BME280;19045;52.268;10.506;2023-06-04T10:46:38;101246.19;;;24.94;26.14
32638;BME280;19045;52.268;10.506;2023-06-04T10:49:09;101253.84;;;25.09;25.99
32638;BME280;19045;52.268;10.506;2023-06-04T10:51:36;101250.13;;;24.84;27.25
32638;BME280;19045;52.268;10.506;2023-06-04T10:54:03;101252.50;;;24.94;26.63
32638;BME280;19045;52.268;10.506;2023-06-04T10:56:32;101250.69;;;24.69;26.56
32638;BME280;19045;52.268;10.506;2023-06-04T10:59:00;101250.97;;;25.05;26.55
32638;BME280;19045;52.268;10.506;2023-06-04T11:01:38;101246.84;;;25.32;26.54
32638;BME280;19045;52.268;10.506;2023-06-04T11:04:06;101249.56;;;25.41;26.00
32638;BME280;19045;52.268;10.506;2023-06-04T11:06:44;101252.78;;;25.63;25.82
32638;BME280;19045;52.268;10.506;2023-06-04T11:09:13;101245.34;;;25.64;25.44
32638;BME280;19045;52.268;10.506;2023-06-04T11:11:42;101250.81;;;25.85;25.67
32638;BME280;19045;52.268;10.506;2023-06-04T11:14:09;101241.44;;;25.98;25.08
32638;BME280;19045;52.268;10.506;2023-06-04T11:16:38;101250.81;;;25.85;25.27
32638;BME280;19045;52.268;10.506;2023-06-04T11:22:21;101244.09;;;25.74;24.13
32638;BME280;19045;52.268;10.506;2023-06-04T11:24:48;101243.13;;;25.90;24.42
32638;BME280;19045;52.268;10.506;2023-06-04T11:27:17;101240.69;;;25.14;24.48
32638;BME280;19045;52.268;10.506;2023-06-04T11:29:49;101235.19;;;24.94;25.03
32638;BME280;19045;52.268;10.506;2023-06-04T11:32:21;101236.28;;;24.72;25.82
32638;BME280;19045;52.268;10.506;2023-06-04T11:34:47;101233.38;;;24.98;25.77
32638;BME280;19045;52.268;10.506;2023-06-04T11:37:14;101239.03;;;25.22;25.50
32638;BME280;19045;52.268;10.506;2023-06-04T11:39:51;101227.81;;;25.48;25.98
32638;BME280;19045;52.268;10.506;2023-06-04T11:42:17;101237.38;;;25.83;25.67
32638;BME280;19045;52.268;10.506;2023-06-04T11:44:45;101232.09;;;25.90;25.56
32638;BME280;19045;52.268;10.506;2023-06-04T11:47:14;101227.72;;;25.89;25.50
32638;BME280;19045;52.268;10.506;2023-06-04T11:49:41;101220.84;;;25.30;24.92
32638;BME280;19045;52.268;10.506;2023-06-04T11:52:13;101218.03;;;25.38;25.75
32638;BME280;19045;52.268;10.506;2023-06-04T11:54:40;101219.06;;;25.66;24.99
32638;BME280;19045;52.268;10.506;2023-06-04T11:57:08;101218.19;;;25.75;26.39
32638;BME280;19045;52.268;10.506;2023-06-04T11:59:35;101229.88;;;25.72;25.54
32638;BME280;19045;52.268;10.506;2023-06-04T12:02:02;101222.47;;;25.84;25.60
32638;BME280;19045;52.268;10.506;2023-06-04T12:04:30;101225.78;;;25.90;25.44
32638;BME280;19045;52.268;10.506;2023-06-04T12:06:58;101221.66;;;25.84;25.51
32638;BME280;19045;52.268;10.506;2023-06-04T12:09:28;101224.97;;;25.77;25.61
32638;BME280;19045;52.268;10.506;2023-06-04T12:11:59;101222.06;;;25.61;26.04
32638;BME280;19045;52.268;10.506;2023-06-04T12:14:28;101231.75;;;24.67;25.69
32638;BME280;19045;52.268;10.506;2023-06-04T12:16:55;101221.56;;;24.68;28.77
32638;BME280;19045;52.268;10.506;2023-06-04T12:19:22;101220.06;;;25.08;27.01
32638;BME280;19045;52.268;10.506;2023-06-04T12:21:59;101213.78;;;25.20;28.13
32638;BME280;19045;52.268;10.506;2023-06-04T12:24:27;101214.13;;;24.68;25.47
32638;BME280;19045;52.268;10.506;2023-06-04T12:27:01;101217.78;;;24.81;27.18
32638;BME280;19045;52.268;10.506;2023-06-04T12:29:33;101207.09;;;24.59;26.56
32638;BME280;19045;52.268;10.506;2023-06-04T12:32:05;101209.72;;;24.76;26.62
32638;BME280;19045;52.268;10.506;2023-06-04T12:34:33;101206.63;;;25.07;25.85
32638;BME280;19045;52.268;10.506;2023-06-04T12:37:00;101214.88;;;25.28;27.39
32638;BME280;19045;52.268;10.506;2023-06-04T12:39:28;101211.19;;;25.24;25.72
32638;BME280;19045;52.268;10.506;2023-06-04T12:41:55;101211.00;;;24.49;25.79
32638;BME280;19045;52.268;10.506;2023-06-04T12:44:21;101213.94;;;24.82;25.37
32638;BME280;19045;52.268;10.506;2023-06-04T12:46:50;101205.50;;;25.08;26.89
32638;BME280;19045;52.268;10.506;2023-06-04T12:49:16;101212.47;;;25.05;25.09
32638;BME280;19045;52.268;10.506;2023-06-04T12:51:43;101208.25;;;24.79;25.92